Time;durP1;ratioP1;P1;durP2;ratioP2;P2;SDS_P1;SDS_P2;PMS_P1;PMS_P2;Temp;Humidity;BMP_temperature;BMP_pressure;BME280_temperature;BME280_humidity;BME280_pressure;Samples;Min_cycle;Max_cycle;Signal;HPM_P1;HPM_P2
2023/07/17 00:01:20;;;;;;;6.78;3.20;;;16.60;96.50;;;;;;5116807;27;20027;-86
2023/07/17 00:03:46;;;;;;;9.68;3.05;;;16.50;96.30;;;;;;5127656;27;20032;-86
2023/07/17 00:06:11;;;;;;;8.15;3.42;;;16.50;96.40;;;;;;5109182;28;20043;-86
2023/07/17 00:08:37;;;;;;;7.00;3.00;;;16.40;96.00;;;;;;5111888;27;20088;-86
2023/07/17 00:11:02;;;;;;;9.00;3.10;;;16.40;95.80;;;;;;5116957;27;20095;-86
2023/07/17 00:13:31;;;;;;;7.13;3.08;;;16.30;95.90;;;;;;5107359;27;20097;-86
2023/07/17 00:15:57;;;;;;;13.45;3.20;;;16.10;95.40;;;;;;5114363;27;20031;-86
2023/07/17 00:18:22;;;;;;;6.10;3.13;;;15.90;94.80;;;;;;5113220;28;20035;-84
2023/07/17 00:20:48;;;;;;;7.32;3.25;;;15.80;94.80;;;;;;5098089;28;20032;-84
2023/07/17 00:23:14;;;;;;;10.55;3.85;;;15.80;96.40;;;;;;5098164;28;20111;-86
2023/07/17 00:25:39;;;;;;;9.80;3.70;;;15.90;96.20;;;;;;5109887;28;20136;-86
2023/07/17 00:28:05;;;;;;;8.48;3.47;;;15.90;96.80;;;;;;5103086;28;20027;-86
2023/07/17 00:30:30;;;;;;;9.02;3.35;;;15.90;96.50;;;;;;5112181;28;20024;-86
2023/07/17 00:32:56;;;;;;;11.13;3.25;;;16.00;96.40;;;;;;5098151;28;20122;-86
2023/07/17 00:35:22;;;;;;;6.75;3.10;;;16.10;96.40;;;;;;5096847;28;20032;-86
2023/07/17 00:37:47;;;;;;;7.07;2.67;;;16.20;96.10;;;;;;5107169;28;20024;-86
2023/07/17 00:40:13;;;;;;;10.82;3.88;;;16.20;96.70;;;;;;5115137;28;20450;-87
2023/07/17 00:42:39;;;;;;;7.95;3.53;;;16.10;96.60;;;;;;5108368;28;20085;-86
2023/07/17 00:45:06;;;;;;;7.45;3.13;;;16.10;96.50;;;;;;5102506;28;20096;-86
2023/07/17 00:47:32;;;;;;;8.93;3.15;;;16.10;96.60;;;;;;5118361;28;20065;-86
2023/07/17 00:49:58;;;;;;;8.63;3.40;;;16.20;97.10;;;;;;5098725;28;20028;-87
2023/07/17 00:52:25;;;;;;;6.40;3.20;;;16.30;97.30;;;;;;5113977;28;20092;-85
2023/07/17 00:54:51;;;;;;;6.93;3.17;;;16.30;97.40;;;;;;5116738;28;20073;-86
2023/07/17 00:57:18;;;;;;;10.85;3.30;;;16.20;97.10;;;;;;5116638;28;20024;-86
2023/07/17 00:59:43;;;;;;;9.68;3.90;;;16.10;96.90;;;;;;5117022;28;20053;-86
2023/07/17 01:02:09;;;;;;;8.75;3.17;;;15.90;97.30;;;;;;5112173;28;20024;-87
2023/07/17 01:04:36;;;;;;;7.03;3.00;;;15.90;97.80;;;;;;5097586;28;20024;-86
2023/07/17 01:07:02;;;;;;;7.93;3.15;;;15.90;97.70;;;;;;5107498;28;20012;-86
2023/07/17 01:09:28;;;;;;;9.27;3.30;;;16.00;98.00;;;;;;5097166;28;20028;-86
2023/07/17 01:11:54;;;;;;;6.85;2.95;;;16.20;98.00;;;;;;5104803;28;20030;-86
2023/07/17 01:14:20;;;;;;;7.38;2.70;;;16.40;98.00;;;;;;5115629;28;20035;-86
2023/07/17 01:16:49;;;;;;;8.63;3.30;;;16.50;98.00;;;;;;5117245;28;20091;-86
2023/07/17 01:19:15;;;;;;;7.18;3.13;;;16.60;97.80;;;;;;5115309;28;20077;-86
2023/07/17 01:21:51;;;;;;;11.85;3.50;;;16.60;97.70;;;;;;5105286;28;20063;-87
2023/07/17 01:24:19;;;;;;;9.05;3.50;;;16.60;97.80;;;;;;5103996;28;20363;-86
2023/07/17 01:26:45;;;;;;;7.90;3.20;;;16.40;97.80;;;;;;5103903;28;20023;-86
2023/07/17 01:29:11;;;;;;;7.07;3.47;;;16.30;98.00;;;;;;5116747;28;20045;-87
2023/07/17 01:31:38;;;;;;;8.50;3.55;;;16.30;97.70;;;;;;5117271;28;20023;-87
2023/07/17 01:34:04;;;;;;;7.07;3.30;;;16.30;97.30;;;;;;5117148;28;20022;-86
2023/07/17 01:36:29;;;;;;;8.15;3.50;;;16.40;97.90;;;;;;5111097;28;20384;-86
2023/07/17 01:38:55;;;;;;;5.30;2.90;;;16.40;97.60;;;;;;5112472;28;20301;-86
2023/07/17 01:41:23;;;;;;;8.60;3.40;;;16.40;97.60;;;;;;5098405;28;20024;-87
2023/07/17 01:43:49;;;;;;;8.75;3.22;;;16.50;97.70;;;;;;5095479;28;20032;-87
2023/07/17 01:46:14;;;;;;;7.50;3.17;;;16.60;97.70;;;;;;5096487;28;20126;-86
2023/07/17 01:48:40;;;;;;;8.15;2.95;;;16.50;97.70;;;;;;5095434;28;20024;-86
2023/07/17 01:51:06;;;;;;;7.88;3.30;;;16.50;97.70;;;;;;5096300;28;20028;-87
2023/07/17 01:53:33;;;;;;;7.95;3.20;;;16.60;97.70;;;;;;5114489;27;20027;-87
2023/07/17 01:55:59;;;;;;;6.18;3.00;;;16.60;97.70;;;;;;5115702;27;20095;-86
2023/07/17 01:58:25;;;;;;;6.88;3.20;;;16.70;97.90;;;;;;5115883;28;20016;-87
2023/07/17 02:00:54;;;;;;;5.82;3.05;;;16.70;97.70;;;;;;5111786;28;20027;-87
2023/07/17 02:03:21;;;;;;;9.13;3.10;;;16.70;97.70;;;;;;5111960;28;20103;-87
2023/07/17 02:05:46;;;;;;;8.32;3.05;;;16.70;97.70;;;;;;5112786;28;20024;-87
2023/07/17 02:08:12;;;;;;;7.72;3.40;;;16.70;97.60;;;;;;5115521;27;20024;-87
2023/07/17 02:10:43;;;;;;;6.47;3.28;;;16.60;97.60;;;;;;5108347;28;20441;-87
2023/07/17 02:13:08;;;;;;;10.10;3.72;;;16.60;97.60;;;;;;5096291;28;20032;-87
2023/07/17 02:15:34;;;;;;;10.40;3.97;;;16.70;97.40;;;;;;5111802;28;20413;-87
2023/07/17 02:18:00;;;;;;;8.95;3.35;;;16.60;97.30;;;;;;5113367;28;20027;-87
2023/07/17 02:20:25;;;;;;;8.05;3.17;;;16.60;97.30;;;;;;5109368;28;20106;-86
2023/07/17 02:22:51;;;;;;;6.30;3.33;;;16.70;97.50;;;;;;5112021;28;20028;-87
2023/07/17 02:25:17;;;;;;;8.45;3.05;;;16.80;97.60;;;;;;5104771;28;20430;-87
2023/07/17 02:27:46;;;;;;;8.75;3.20;;;16.90;97.70;;;;;;5112820;28;20031;-87
2023/07/17 02:30:11;;;;;;;8.18;3.35;;;16.80;97.40;;;;;;5103898;28;20032;-87
2023/07/17 02:32:37;;;;;;;6.80;3.03;;;16.90;97.40;;;;;;5113174;28;20024;-87
2023/07/17 02:35:04;;;;;;;8.88;3.78;;;16.80;97.20;;;;;;5116279;28;20024;-86
2023/07/17 02:37:29;;;;;;;11.68;3.63;;;16.70;97.10;;;;;;5114896;28;20483;-85
2023/07/17 02:39:55;;;;;;;7.97;3.20;;;16.60;97.20;;;;;;5114300;28;20034;-85
2023/07/17 02:42:20;;;;;;;8.68;3.55;;;16.50;96.90;;;;;;5116123;28;20442;-86
2023/07/17 02:44:49;;;;;;;8.82;2.95;;;16.60;97.10;;;;;;5105436;28;20118;-85
2023/07/17 02:47:15;;;;;;;6.95;2.85;;;16.60;97.40;;;;;;5107060;28;20027;-87
2023/07/17 02:49:42;;;;;;;7.13;3.35;;;16.60;97.10;;;;;;5108441;28;20032;-87
2023/07/17 02:52:08;;;;;;;9.82;3.50;;;16.50;97.30;;;;;;5113255;28;20031;-87
2023/07/17 02:54:38;;;;;;;7.30;3.00;;;16.40;97.20;;;;;;5113892;28;20080;-87
2023/07/17 02:57:05;;;;;;;8.55;3.10;;;16.40;97.10;;;;;;5116085;28;20031;-87
2023/07/17 02:59:30;;;;;;;5.68;3.08;;;16.40;97.10;;;;;;5114548;28;20315;-87
2023/07/17 03:01:57;;;;;;;9.00;3.50;;;16.50;97.40;;;;;;5102803;28;20032;-87
2023/07/17 03:04:23;;;;;;;6.70;3.47;;;16.40;97.10;;;;;;5107743;28;20028;-86
2023/07/17 03:06:49;;;;;;;11.07;3.70;;;16.30;96.90;;;;;;5103354;28;20335;-87
2023/07/17 03:09:14;;;;;;;6.95;3.53;;;16.20;97.80;;;;;;5113165;28;20084;-87
2023/07/17 03:11:40;;;;;;;9.32;3.60;;;16.10;97.80;;;;;;5105634;28;20051;-88
2023/07/17 03:14:05;;;;;;;6.60;3.13;;;16.10;97.10;;;;;;5116278;28;20016;-86
2023/07/17 03:16:31;;;;;;;8.00;3.45;;;16.20;97.00;;;;;;5108544;27;20478;-88
2023/07/17 03:18:57;;;;;;;6.43;3.00;;;16.20;97.00;;;;;;5105875;28;20020;-88
2023/07/17 03:21:22;;;;;;;7.53;3.13;;;16.10;96.50;;;;;;5105010;27;20520;-87
2023/07/17 03:23:48;;;;;;;5.90;3.20;;;16.10;96.30;;;;;;5117785;27;20081;-88
2023/07/17 03:26:14;;;;;;;11.00;3.83;;;16.20;96.20;;;;;;5118433;28;20027;-88
2023/07/17 03:28:39;;;;;;;9.55;3.70;;;16.10;97.00;;;;;;5118118;28;20023;-88
2023/07/17 03:31:07;;;;;;;12.18;3.70;;;16.10;96.50;;;;;;5100613;27;20438;-88
2023/07/17 03:33:33;;;;;;;6.47;3.83;;;16.20;97.20;;;;;;5117941;28;20015;-88
2023/07/17 03:35:59;;;;;;;8.32;3.70;;;16.30;97.10;;;;;;5111975;28;20362;-88
2023/07/17 03:38:24;;;;;;;7.68;3.20;;;16.40;97.30;;;;;;5109594;27;20095;-87
2023/07/17 03:40:50;;;;;;;8.43;3.35;;;16.40;97.10;;;;;;5106084;28;20059;-88
2023/07/17 03:43:15;;;;;;;10.43;4.03;;;16.40;97.20;;;;;;5117554;27;20035;-88
2023/07/17 03:45:41;;;;;;;11.23;3.78;;;16.20;97.30;;;;;;5110442;27;20031;-87
2023/07/17 03:48:07;;;;;;;10.20;3.60;;;16.10;97.60;;;;;;5111029;28;20720;-87
2023/07/17 03:50:32;;;;;;;6.50;3.42;;;16.00;98.00;;;;;;5112188;27;20065;-88
2023/07/17 03:53:01;;;;;;;9.50;3.63;;;16.00;98.00;;;;;;5116774;28;20088;-88
2023/07/17 03:55:27;;;;;;;8.00;3.45;;;16.00;97.30;;;;;;5113976;28;20528;-86
2023/07/17 03:57:52;;;;;;;7.90;3.45;;;16.00;97.70;;;;;;5115690;27;20020;-88
2023/07/17 04:00:18;;;;;;;6.97;3.38;;;16.00;97.60;;;;;;5101060;27;20047;-87
2023/07/17 04:02:44;;;;;;;7.80;4.22;;;16.00;97.50;;;;;;5116168;27;20035;-87
2023/07/17 04:05:10;;;;;;;9.32;3.85;;;16.00;97.20;;;;;;5105903;27;20024;-87
2023/07/17 04:07:36;;;;;;;7.78;3.72;;;16.00;96.90;;;;;;5113435;27;20436;-88
2023/07/17 04:10:03;;;;;;;8.02;3.60;;;15.90;97.10;;;;;;5115231;27;20036;-87
2023/07/17 04:12:29;;;;;;;10.25;4.53;;;15.90;97.30;;;;;;5113153;28;20019;-87
2023/07/17 04:14:54;;;;;;;7.25;3.65;;;16.00;97.50;;;;;;5103268;28;20042;-88
2023/07/17 04:17:20;;;;;;;7.38;3.40;;;16.10;97.30;;;;;;5109175;28;20028;-88
2023/07/17 04:19:45;;;;;;;10.18;3.40;;;16.10;97.30;;;;;;5115688;27;20058;-87
2023/07/17 04:22:11;;;;;;;8.45;3.90;;;16.20;98.00;;;;;;5110527;28;20025;-88
2023/07/17 04:24:37;;;;;;;9.95;3.55;;;16.30;97.80;;;;;;5097809;28;20016;-87
2023/07/17 04:27:02;;;;;;;8.32;3.92;;;16.50;97.50;;;;;;5108252;28;20031;-87
2023/07/17 04:29:28;;;;;;;7.45;3.25;;;16.70;97.30;;;;;;5112059;28;20518;-88
2023/07/17 04:31:54;;;;;;;9.88;3.55;;;16.80;97.20;;;;;;5101773;28;20043;-88
2023/07/17 04:34:19;;;;;;;9.23;4.07;;;16.90;97.60;;;;;;5112498;28;20028;-88
2023/07/17 04:36:46;;;;;;;12.52;4.05;;;17.00;97.40;;;;;;5107649;28;20428;-88
2023/07/17 04:39:12;;;;;;;8.80;3.90;;;17.00;97.20;;;;;;5101612;27;20027;-87
2023/07/17 04:41:38;;;;;;;12.35;4.38;;;17.00;97.40;;;;;;5102219;27;20336;-88
2023/07/17 04:44:04;;;;;;;8.48;3.92;;;17.00;97.40;;;;;;5105485;27;20020;-87
2023/07/17 04:46:29;;;;;;;8.07;3.67;;;17.10;97.50;;;;;;5098096;28;20020;-87
2023/07/17 04:48:55;;;;;;;8.27;3.90;;;17.30;97.70;;;;;;5104226;27;20031;-88
2023/07/17 04:51:21;;;;;;;6.80;3.40;;;17.40;98.00;;;;;;5110395;27;20031;-87
2023/07/17 04:53:47;;;;;;;9.98;3.60;;;17.50;96.80;;;;;;5122333;27;20425;-88
2023/07/17 04:56:12;;;;;;;8.43;3.45;;;17.50;97.40;;;;;;5112747;27;20016;-88
2023/07/17 04:58:38;;;;;;;9.48;4.30;;;17.40;97.60;;;;;;5111347;28;20085;-88
2023/07/17 05:01:04;;;;;;;7.13;3.55;;;17.40;97.80;;;;;;5107628;27;20036;-87
2023/07/17 05:03:31;;;;;;;5.95;3.15;;;17.40;97.80;;;;;;5109156;27;20038;-88
2023/07/17 05:05:57;;;;;;;11.80;4.18;;;17.60;97.90;;;;;;5110964;28;20085;-87
2023/07/17 05:08:26;;;;;;;9.32;3.60;;;17.80;97.70;;;;;;5097274;28;20028;-88
2023/07/17 05:11:04;;;;;;;10.02;3.80;;;17.90;97.50;;;;;;5097368;28;20023;-88
2023/07/17 05:13:31;;;;;;;9.82;3.47;;;17.90;97.40;;;;;;5102533;28;20077;-88
2023/07/17 05:15:57;;;;;;;8.27;3.40;;;17.90;97.40;;;;;;5114642;28;20016;-88
2023/07/17 05:18:23;;;;;;;10.38;3.72;;;18.00;97.20;;;;;;5107864;28;20123;-88
2023/07/17 05:20:50;;;;;;;9.27;3.08;;;17.90;97.10;;;;;;5097355;28;20035;-88
2023/07/17 05:23:17;;;;;;;8.77;3.47;;;18.10;97.30;;;;;;5103367;28;20032;-88
2023/07/17 05:25:53;;;;;;;9.15;3.67;;;18.20;97.00;;;;;;5112276;28;20499;-88
2023/07/17 05:28:19;;;;;;;11.27;3.92;;;18.30;97.00;;;;;;5106029;27;20435;-87
2023/07/17 05:30:44;;;;;;;9.48;3.28;;;18.40;96.00;;;;;;5117357;28;20032;-86
2023/07/17 05:33:10;;;;;;;8.77;3.85;;;18.50;95.10;;;;;;5112727;28;20106;-86
2023/07/17 05:35:35;;;;;;;6.93;3.15;;;18.70;95.80;;;;;;5115267;28;20034;-87
2023/07/17 05:38:01;;;;;;;8.10;3.55;;;18.90;95.90;;;;;;5114913;28;20023;-86
2023/07/17 05:40:26;;;;;;;7.82;3.53;;;18.70;95.00;;;;;;5115339;28;20030;-88
2023/07/17 05:42:52;;;;;;;8.30;3.58;;;18.90;96.00;;;;;;5104023;28;20070;-89
2023/07/17 05:45:18;;;;;;;9.85;4.00;;;19.00;94.70;;;;;;5105412;28;20074;-89
2023/07/17 05:47:43;;;;;;;7.40;3.20;;;19.10;93.10;;;;;;5109315;28;20032;-88
2023/07/17 05:50:11;;;;;;;10.00;3.95;;;19.30;94.50;;;;;;5115831;28;20023;-89
2023/07/17 05:52:36;;;;;;;7.35;3.70;;;19.40;90.90;;;;;;5114452;28;20057;-88
2023/07/17 05:55:03;;;;;;;6.38;3.30;;;19.40;90.00;;;;;;5132006;27;20054;-88
2023/07/17 05:57:29;;;;;;;10.13;4.38;;;19.60;88.50;;;;;;5137372;27;20023;-88
2023/07/17 05:59:54;;;;;;;5.28;3.08;;;19.90;88.10;;;;;;5112357;27;20027;-88
2023/07/17 06:02:20;;;;;;;6.68;3.38;;;20.20;88.80;;;;;;5113588;28;20019;-88
2023/07/17 06:04:46;;;;;;;7.40;3.42;;;20.40;88.30;;;;;;5115784;28;20028;-88
2023/07/17 06:07:13;;;;;;;7.82;3.50;;;20.60;86.10;;;;;;5123759;27;20023;-88
2023/07/17 06:09:39;;;;;;;7.40;3.42;;;21.10;86.70;;;;;;5137143;27;20011;-88
2023/07/17 06:12:05;;;;;;;8.85;3.70;;;21.40;82.00;;;;;;5137107;27;20027;-89
2023/07/17 06:14:31;;;;;;;10.38;3.78;;;21.60;80.70;;;;;;5137390;27;20027;-88
2023/07/17 06:16:56;;;;;;;8.60;3.28;;;21.50;80.10;;;;;;5126243;27;20032;-88
2023/07/17 06:19:22;;;;;;;10.15;3.08;;;21.40;80.00;;;;;;5112606;28;20031;-88
2023/07/17 06:21:47;;;;;;;9.13;3.67;;;21.30;81.10;;;;;;5100964;28;20043;-89
2023/07/17 06:24:13;;;;;;;8.75;3.28;;;21.40;80.00;;;;;;5097419;28;20063;-88
2023/07/17 06:26:39;;;;;;;10.65;3.83;;;21.60;80.00;;;;;;5113914;28;20428;-89
2023/07/17 06:29:09;;;;;;;11.95;3.72;;;21.60;79.70;;;;;;5114572;28;20028;-88
2023/07/17 06:31:34;;;;;;;7.68;3.33;;;21.70;79.70;;;;;;5114208;28;20020;-88
2023/07/17 06:34:00;;;;;;;8.75;3.80;;;21.80;80.50;;;;;;5104098;28;20069;-86
2023/07/17 06:36:26;;;;;;;8.10;3.63;;;21.50;79.50;;;;;;5105868;28;20040;-87
2023/07/17 06:38:51;;;;;;;8.75;3.20;;;21.40;80.20;;;;;;5105994;28;20039;-88
2023/07/17 06:41:26;;;;;;;9.18;3.42;;;21.50;80.10;;;;;;5103826;28;20082;-91
2023/07/17 06:43:51;;;;;;;9.35;3.53;;;21.40;80.40;;;;;;5114133;28;20027;-86
2023/07/17 06:46:17;;;;;;;8.85;3.42;;;21.00;81.30;;;;;;5102864;28;20067;-87
2023/07/17 06:48:43;;;;;;;9.55;3.75;;;20.90;82.00;;;;;;5104834;28;20085;-89
2023/07/17 06:51:10;;;;;;;9.15;3.63;;;20.80;82.90;;;;;;5111862;28;20042;-86
2023/07/17 06:53:35;;;;;;;9.73;3.60;;;20.70;83.70;;;;;;5116434;28;20035;-86
2023/07/17 06:56:01;;;;;;;9.15;3.75;;;20.80;84.00;;;;;;5100186;28;20024;-89
2023/07/17 06:58:27;;;;;;;7.10;3.13;;;21.10;83.80;;;;;;5099766;28;20016;-86
2023/07/17 07:01:00;;;;;;;13.18;4.00;;;21.20;82.70;;;;;;5111292;28;20047;-85
2023/07/17 07:03:27;;;;;;;10.10;4.03;;;20.80;83.00;;;;;;5115200;28;20027;-87
2023/07/17 07:05:59;;;;;;;8.52;3.40;;;20.80;83.90;;;;;;5115947;28;20036;-87
2023/07/17 07:08:26;;;;;;;15.60;4.13;;;20.70;83.90;;;;;;5109709;28;20028;-88
2023/07/17 07:10:53;;;;;;;8.98;3.95;;;20.60;84.20;;;;;;5113793;28;20069;-87
2023/07/17 07:13:20;;;;;;;10.07;4.13;;;20.80;84.90;;;;;;5104050;28;20020;-87
2023/07/17 07:15:45;;;;;;;9.38;4.07;;;20.90;84.30;;;;;;5099610;28;20059;-88
2023/07/17 07:18:11;;;;;;;9.88;4.18;;;21.00;83.50;;;;;;5098361;28;20440;-86
2023/07/17 07:20:37;;;;;;;6.53;3.90;;;21.00;81.00;;;;;;5098405;28;20024;-88
2023/07/17 07:23:02;;;;;;;9.48;4.80;;;21.10;82.60;;;;;;5099192;28;20074;-89
2023/07/17 07:25:28;;;;;;;12.95;4.80;;;21.30;83.20;;;;;;5117504;28;20293;-88
2023/07/17 07:27:54;;;;;;;9.85;4.28;;;21.50;80.80;;;;;;5112126;28;20093;-88
2023/07/17 07:30:20;;;;;;;8.20;4.40;;;21.40;79.80;;;;;;5103274;28;20155;-88
2023/07/17 07:32:47;;;;;;;8.65;4.28;;;21.50;81.10;;;;;;5101999;28;20048;-88
2023/07/17 07:35:13;;;;;;;12.60;4.80;;;21.70;78.00;;;;;;5111882;28;20024;-90
2023/07/17 07:37:39;;;;;;;9.10;4.30;;;22.20;76.50;;;;;;5105170;28;20324;-88
2023/07/17 07:40:06;;;;;;;9.32;4.55;;;22.70;74.50;;;;;;5106366;28;20066;-88
2023/07/17 07:42:32;;;;;;;9.48;4.30;;;23.30;73.00;;;;;;5115587;28;20308;-88
2023/07/17 07:44:58;;;;;;;11.23;4.65;;;23.90;73.60;;;;;;5114482;28;20100;-88
2023/07/17 07:47:24;;;;;;;9.32;4.30;;;24.30;71.10;;;;;;5107056;28;20031;-86
2023/07/17 07:49:50;;;;;;;10.13;4.20;;;24.40;70.30;;;;;;5107309;28;20028;-88
2023/07/17 07:52:16;;;;;;;10.90;4.22;;;24.80;69.50;;;;;;5098223;28;20020;-88
2023/07/17 07:54:43;;;;;;;9.52;4.47;;;25.20;68.70;;;;;;5107652;28;20434;-88
2023/07/17 07:57:09;;;;;;;8.55;4.75;;;25.30;68.90;;;;;;5116105;28;20053;-87
2023/07/17 07:59:35;;;;;;;8.85;4.55;;;25.80;67.70;;;;;;5117802;28;20059;-88
2023/07/17 08:02:01;;;;;;;9.40;4.43;;;25.50;68.60;;;;;;5109478;28;20024;-90
2023/07/17 08:04:28;;;;;;;8.32;4.55;;;25.20;68.30;;;;;;5107756;28;20413;-88
2023/07/17 08:06:54;;;;;;;10.55;4.32;;;25.30;67.80;;;;;;5116135;28;20088;-87
2023/07/17 08:09:20;;;;;;;10.07;4.28;;;25.30;67.30;;;;;;5106855;28;20028;-87
2023/07/17 08:11:45;;;;;;;10.20;4.30;;;25.30;67.90;;;;;;5118625;28;20061;-87
2023/07/17 08:14:14;;;;;;;9.40;4.10;;;25.50;67.80;;;;;;5111167;28;20545;-87
2023/07/17 08:16:40;;;;;;;8.90;4.20;;;25.90;67.00;;;;;;5103400;28;20028;-87
2023/07/17 08:19:05;;;;;;;9.20;4.43;;;26.50;66.70;;;;;;5116765;28;20031;-87
2023/07/17 08:21:31;;;;;;;8.25;3.83;;;26.80;65.40;;;;;;5116452;28;20032;-88
2023/07/17 08:23:57;;;;;;;7.38;3.97;;;26.80;64.30;;;;;;5118935;28;20055;-85
2023/07/17 08:26:22;;;;;;;9.27;4.15;;;26.10;65.50;;;;;;5113434;28;20357;-85
2023/07/17 08:28:51;;;;;;;8.02;3.55;;;26.80;65.40;;;;;;5098312;28;20020;-86
2023/07/17 08:31:16;;;;;;;9.35;4.20;;;27.10;62.50;;;;;;5098087;28;20032;-85
2023/07/17 08:33:42;;;;;;;9.50;4.50;;;26.90;61.90;;;;;;5097122;28;20024;-86
2023/07/17 08:36:08;;;;;;;9.43;4.07;;;26.40;62.90;;;;;;5104096;28;20075;-80
2023/07/17 08:38:33;;;;;;;7.85;4.20;;;25.60;65.00;;;;;;5103283;28;20052;-87
2023/07/17 08:40:59;;;;;;;9.93;4.78;;;25.40;66.60;;;;;;5116474;28;20123;-87
2023/07/17 08:43:28;;;;;;;9.27;4.60;;;25.60;65.00;;;;;;5111136;28;20051;-87
2023/07/17 08:45:53;;;;;;;7.80;4.05;;;25.50;65.50;;;;;;5115918;28;20023;-88
2023/07/17 08:48:20;;;;;;;10.95;4.32;;;25.70;63.80;;;;;;5108989;28;20282;-86
2023/07/17 08:50:46;;;;;;;9.82;4.60;;;26.00;63.80;;;;;;5115953;28;20031;-86
2023/07/17 08:53:13;;;;;;;9.13;4.32;;;26.40;64.10;;;;;;5110407;28;20016;-87
2023/07/17 08:55:39;;;;;;;11.07;4.60;;;26.50;63.00;;;;;;5100638;28;20062;-86
2023/07/17 08:58:05;;;;;;;8.80;4.18;;;27.20;61.00;;;;;;5116067;28;20027;-86
2023/07/17 09:00:32;;;;;;;10.40;4.55;;;27.80;59.50;;;;;;5112740;28;20020;-87
2023/07/17 09:02:58;;;;;;;10.20;4.20;;;27.50;61.40;;;;;;5100603;28;20085;-86
2023/07/17 09:05:24;;;;;;;10.65;4.43;;;27.50;61.40;;;;;;5114525;28;20084;-86
2023/07/17 09:07:50;;;;;;;9.30;4.35;;;28.10;61.20;;;;;;5105998;28;20062;-87
2023/07/17 09:10:21;;;;;;;8.05;4.13;;;28.60;58.70;;;;;;5098150;28;20060;-86
2023/07/17 09:12:54;;;;;;;9.35;4.50;;;28.60;58.90;;;;;;5099027;28;20373;-87
2023/07/17 09:15:20;;;;;;;8.70;4.18;;;28.40;59.60;;;;;;5110859;28;20024;-87
2023/07/17 09:17:46;;;;;;;6.75;3.92;;;28.10;60.10;;;;;;5096245;28;20027;-86
2023/07/17 09:20:13;;;;;;;7.80;4.18;;;28.00;60.40;;;;;;5097169;28;20031;-86
2023/07/17 09:22:39;;;;;;;8.43;4.40;;;28.10;58.60;;;;;;5096136;28;20021;-86
2023/07/17 09:25:06;;;;;;;12.48;4.95;;;27.60;60.10;;;;;;5099982;28;20110;-87
2023/07/17 09:27:45;;;;;;;9.80;4.95;;;26.50;61.30;;;;;;5100970;28;20115;-86
2023/07/17 09:30:13;;;;;;;8.93;4.45;;;26.30;61.70;;;;;;5097049;28;20507;-87
2023/07/17 09:32:39;;;;;;;8.82;4.57;;;26.00;63.40;;;;;;5099517;28;20107;-87
2023/07/17 09:35:06;;;;;;;7.65;4.50;;;25.70;61.70;;;;;;5096785;28;20041;-86
2023/07/17 09:37:33;;;;;;;8.10;4.32;;;25.70;62.50;;;;;;5095469;28;20067;-87
2023/07/17 09:40:00;;;;;;;8.70;4.20;;;26.20;63.10;;;;;;5110736;28;20420;-85
2023/07/17 09:42:25;;;;;;;9.98;4.97;;;26.80;61.00;;;;;;5104809;28;20019;-85
2023/07/17 09:44:52;;;;;;;8.13;3.90;;;27.60;60.50;;;;;;5107393;28;20404;-85
2023/07/17 09:47:21;;;;;;;8.80;4.35;;;27.70;59.70;;;;;;5116084;28;20097;-85
2023/07/17 09:49:57;;;;;;;9.50;4.40;;;28.60;59.50;;;;;;5117010;28;20020;-86
2023/07/17 09:52:23;;;;;;;8.05;4.63;;;29.10;56.00;;;;;;5115815;28;20477;-86
2023/07/17 09:54:50;;;;;;;7.43;4.30;;;27.90;57.90;;;;;;5115799;28;20023;-86
2023/07/17 09:57:38;;;;;;;8.82;3.80;;;26.40;58.90;;;;;;5116966;28;20029;-85
2023/07/17 10:00:19;;;;;;;7.55;4.10;;;25.40;61.30;;;;;;5116912;28;20016;-87
2023/07/17 10:02:56;;;;;;;10.48;4.95;;;24.90;62.60;;;;;;5116936;28;20102;-85
2023/07/17 10:05:22;;;;;;;6.63;4.07;;;24.50;63.70;;;;;;5115544;28;20106;-86
2023/07/17 10:07:50;;;;;;;9.82;4.68;;;25.00;64.30;;;;;;5115713;28;20115;-85
2023/07/17 10:10:16;;;;;;;8.65;4.00;;;26.20;62.10;;;;;;5115692;28;20030;-86
2023/07/17 10:12:42;;;;;;;9.65;4.38;;;26.90;60.90;;;;;;5116650;28;20094;-85
2023/07/17 10:15:09;;;;;;;9.00;4.47;;;27.50;59.20;;;;;;5116814;28;20475;-86
2023/07/17 10:17:40;;;;;;;9.40;3.90;;;27.90;58.50;;;;;;5115548;28;20370;-86
2023/07/17 10:20:10;;;;;;;9.15;4.10;;;28.40;56.90;;;;;;5116721;28;20023;-85
2023/07/17 10:22:43;;;;;;;8.50;4.75;;;28.50;57.40;;;;;;5114095;28;20366;-85
2023/07/17 10:25:19;;;;;;;10.10;4.50;;;28.50;57.60;;;;;;5116408;28;20022;-85
2023/07/17 10:27:58;;;;;;;7.72;4.05;;;28.80;57.50;;;;;;5116546;28;20032;-85
2023/07/17 10:30:31;;;;;;;11.10;4.45;;;28.70;57.10;;;;;;5115487;28;20028;-85
2023/07/17 10:33:15;;;;;;;11.60;5.13;;;28.50;58.30;;;;;;5115392;28;20027;-85
2023/07/17 10:35:57;;;;;;;6.80;4.07;;;28.20;58.10;;;;;;5114950;28;20070;-85
2023/07/17 10:38:26;;;;;;;8.43;4.00;;;28.00;56.40;;;;;;5116404;28;20047;-85
2023/07/17 10:41:25;;;;;;;9.38;3.97;;;27.70;57.90;;;;;;5115402;28;20028;-85
2023/07/17 10:43:52;;;;;;;8.00;4.30;;;29.10;55.80;;;;;;5116266;28;20416;-85
2023/07/17 10:46:18;;;;;;;8.55;4.70;;;29.90;55.50;;;;;;5116295;28;20032;-85
2023/07/17 10:48:43;;;;;;;7.82;4.28;;;30.20;53.90;;;;;;5115308;28;20020;-85
2023/07/17 10:51:12;;;;;;;7.93;3.83;;;30.00;53.90;;;;;;5114988;28;20126;-85
2023/07/17 10:53:38;;;;;;;7.53;4.45;;;30.20;53.30;;;;;;5115359;28;20382;-85
2023/07/17 10:56:05;;;;;;;8.60;4.43;;;29.80;54.80;;;;;;5116406;28;20042;-85
2023/07/17 10:58:31;;;;;;;8.00;4.18;;;29.20;54.80;;;;;;5116158;28;20023;-85
2023/07/17 11:00:56;;;;;;;7.45;4.13;;;28.70;57.90;;;;;;5116310;28;20103;-85
2023/07/17 11:03:26;;;;;;;7.65;3.85;;;29.10;57.30;;;;;;5116247;28;20028;-85
2023/07/17 11:05:57;;;;;;;8.80;4.07;;;29.80;56.90;;;;;;5115047;28;20123;-85
2023/07/17 11:08:28;;;;;;;8.07;4.40;;;29.70;55.30;;;;;;5116077;28;20074;-85
2023/07/17 11:10:53;;;;;;;7.15;3.88;;;29.50;56.30;;;;;;5115980;28;20028;-85
2023/07/17 11:13:19;;;;;;;8.00;4.05;;;29.40;58.40;;;;;;5116017;28;20020;-85
2023/07/17 11:15:45;;;;;;;10.77;4.65;;;29.00;57.40;;;;;;5116138;28;20043;-86
2023/07/17 11:18:10;;;;;;;8.77;4.60;;;29.20;58.10;;;;;;5116061;28;20066;-84
2023/07/17 11:20:36;;;;;;;9.18;4.68;;;29.30;57.20;;;;;;5114940;28;20375;-83
2023/07/17 11:23:03;;;;;;;7.07;4.03;;;29.40;57.70;;;;;;5115948;28;20423;-83
2023/07/17 11:25:30;;;;;;;7.78;4.13;;;29.20;56.80;;;;;;5115227;28;20320;-84
2023/07/17 11:27:56;;;;;;;7.47;3.33;;;29.20;58.00;;;;;;5115980;28;20035;-84
2023/07/17 11:30:29;;;;;;;6.88;3.88;;;29.70;56.40;;;;;;5115911;28;20023;-86
2023/07/17 11:32:58;;;;;;;8.10;3.85;;;29.70;57.20;;;;;;5115026;28;20320;-86
2023/07/17 11:35:36;;;;;;;9.20;4.72;;;29.70;55.60;;;;;;5116661;28;20111;-85
2023/07/17 11:38:11;;;;;;;11.30;4.70;;;28.70;56.80;;;;;;5118405;28;20413;-84
2023/07/17 11:40:50;;;;;;;6.88;4.03;;;28.50;59.30;;;;;;5118722;28;20027;-85
2023/07/17 11:43:22;;;;;;;8.77;4.15;;;29.70;56.80;;;;;;5119604;28;20320;-85
2023/07/17 11:45:48;;;;;;;7.45;4.13;;;30.00;55.80;;;;;;5119407;28;20107;-84
2023/07/17 11:48:15;;;;;;;9.55;4.75;;;30.30;54.80;;;;;;5119627;28;20481;-85
2023/07/17 11:50:41;;;;;;;8.93;4.35;;;31.00;55.40;;;;;;5116968;28;20028;-85
2023/07/17 11:53:08;;;;;;;10.07;4.60;;;30.70;55.40;;;;;;5119345;28;20027;-85
2023/07/17 11:55:38;;;;;;;8.95;4.57;;;30.10;57.60;;;;;;5119378;28;20309;-84
2023/07/17 11:58:24;;;;;;;10.95;4.93;;;29.70;55.90;;;;;;5118172;28;20016;-84
2023/07/17 12:00:52;;;;;;;8.75;4.65;;;29.50;56.80;;;;;;5119261;28;20366;-84
2023/07/17 12:03:18;;;;;;;10.25;4.55;;;29.30;58.20;;;;;;5119175;28;20035;-84
2023/07/17 12:05:44;;;;;;;7.93;4.30;;;29.80;56.60;;;;;;5117905;28;20027;-84
2023/07/17 12:08:10;;;;;;;9.23;5.00;;;30.40;55.00;;;;;;5119010;28;20459;-85
2023/07/17 12:10:36;;;;;;;9.18;3.90;;;30.70;55.60;;;;;;5118934;28;20106;-84
2023/07/17 12:13:03;;;;;;;7.47;3.75;;;30.60;54.90;;;;;;5117892;28;20358;-84
2023/07/17 12:15:29;;;;;;;8.77;4.72;;;30.30;55.70;;;;;;5119014;28;20015;-84
2023/07/17 12:17:54;;;;;;;10.18;4.50;;;30.70;55.60;;;;;;5118685;28;20347;-84
2023/07/17 12:20:24;;;;;;;9.25;4.40;;;31.50;54.50;;;;;;5117751;28;20028;-84
2023/07/17 12:22:51;;;;;;;8.52;4.30;;;30.20;55.40;;;;;;5119543;28;20144;-84
2023/07/17 12:25:18;;;;;;;7.93;4.53;;;29.70;57.50;;;;;;5118791;28;20023;-84
2023/07/17 12:27:47;;;;;;;7.50;4.13;;;30.10;55.80;;;;;;5118849;28;20024;-84
2023/07/17 12:30:14;;;;;;;8.88;4.40;;;30.10;56.00;;;;;;5118544;27;20090;-84
2023/07/17 12:32:40;;;;;;;8.07;4.25;;;29.90;56.40;;;;;;5117665;28;20048;-85
2023/07/17 12:35:06;;;;;;;6.28;4.00;;;30.20;57.10;;;;;;5118748;28;20020;-85
2023/07/17 12:37:32;;;;;;;8.63;4.70;;;30.00;54.80;;;;;;5117261;28;20052;-85
2023/07/17 12:39:58;;;;;;;9.13;4.72;;;29.10;56.40;;;;;;5118586;28;20020;-85
2023/07/17 12:42:24;;;;;;;9.45;4.55;;;29.20;57.80;;;;;;5118447;28;20434;-85
2023/07/17 12:44:49;;;;;;;8.45;4.47;;;29.00;57.30;;;;;;5118376;28;20415;-84